• Join FlightAware (Why Join?)
  • Login
  • US Flag 
06:03PM EDT


 

Airport Tracker/Info


-or-


 

Live Flight TrackerFlight Track Log ✈ RPA4953 ✈ 22-Aug-2013 ✈ KEWR - KPIT

Flight Track Log - Related Links

Times and Time Zones

All times are in EDT time to prevent confusion due to time zone crossing. See the RPA4953 flight status page for this flight to view local times or setup timezone preferences in your user account.

Time Position Orientation Groundspeed Altitude Reporting Facility
EDT Latitude Longitude Course Direction KTS MPH feet Rate Location/Type
09:22AM 40.6167 -74.2000 303° West 232 267 3,100  Level New York TRACON
09:23AM 40.6500 -74.2667 303° West 265 305 5,800 2,760 Climbing New York TRACON
09:24AM 40.7000 -74.3333 315° West 263 303 8,700 2,160 Climbing New York TRACON
09:25AM 40.7500 -74.3667 333° Northwest 272 313 10,000 600 Climbing New York TRACON
09:26AM 40.8333 -74.4333 329° Northwest 297 342 10,000  Level New York TRACON
09:27AM 40.9000 -74.5000 323° Northwest 292 336 10,000  Level New York TRACON
09:28AM 40.9667 -74.5500 330° Northwest 296 341 10,000 300 Level New York TRACON
09:29AM 41.0333 -74.6000 331° Northwest 297 342 10,600 900 Climbing New York TRACON
09:30AM 41.0650 -74.6375 318° Northwest 297 342 11,500 1,860 Climbing New York Center
09:31AM 41.1378 -74.7025 326° Northwest 291 335 13,500 1,200 Climbing New York Center
09:32AM 41.1789 -74.7847 304° West 286 329 14,000 240 Climbing New York Center
09:33AM 41.2228 -74.8950 298° West 308 354 14,000  Level New York Center
09:34AM 41.2672 -74.9969 300° West 316 364 14,000 480 Level New York Center
09:35AM 41.3075 -75.0906 300° West 316 364 15,000 1,260 Climbing New York Center
09:36AM 41.3481 -75.1817 301° West 305 351 16,600 1,500 Climbing New York Center
09:37AM 41.3919 -75.2842 300° West 295 339 18,100 1,260 Climbing New York Center
09:38AM 41.4244 -75.3636 299° West 295 339 19,200 1,200 Climbing New York Center
09:39AM 41.4625 -75.4522 300° West 290 334 20,600 1,260 Climbing New York Center
09:40AM 41.4628 -75.5492 270° West 266 306 21,800 660 Climbing New York Center
09:41AM 41.4708 -75.6575 276° West 266 306 22,000 60 Climbing New York Center
09:42AM 41.5347 -75.7261 321° Northwest 281 323 22,000  Level New York Center
09:43AM 41.5525 -75.8464 281° West 297 342 22,100 840 Climbing New York Center
09:44AM 41.5622 -75.9581 277° West 310 357 23,700 900 Climbing New York Center
09:45AM 41.5719 -76.0669 277° West 305 351 24,000 120 Climbing New York Center
09:46AM 41.5853 -76.1875 278° West 307 353 24,000  Level New York Center
09:47AM 41.5964 -76.3103 277° West 328 377 24,000  Level New York Center
09:48AM 41.6092 -76.4361 278° West 339 390 24,000  Level New York Center
09:49AM 41.6197 -76.5619 276° West 339 390 24,000  Level New York Center
09:50AM 41.6322 -76.6881 278° West 339 390 24,000  Level New York Center
09:52AM 41.6603 -77.0031 277° West 342 394 24,000  Level Cleveland Center
09:53AM 41.6706 -77.1306 276° West 347 399 24,000  Level Cleveland Center
09:54AM 41.6825 -77.2578 277° West 347 399 24,000  Level Cleveland Center
09:55AM 41.6944 -77.3850 277° West 347 399 24,000  Level Cleveland Center
09:56AM 41.6708 -77.5086 256° West 347 399 24,000  Level Cleveland Center
09:57AM 41.6300 -77.6217 244° Southwest 338 389 24,000 -300 Level Cleveland Center
09:58AM 41.5853 -77.7542 246° West 351 404 23,500 -480 Descending Cleveland Center
09:59AM 41.5425 -77.8781 245° Southwest 358 412 23,100 -300 Descending Cleveland Center
10:00AM 41.5036 -77.9989 247° West 364 419 23,000 -60 Descending Cleveland Center
10:01AM 41.4644 -78.1225 247° West 364 419 23,000  Level Cleveland Center
10:02AM 41.4253 -78.2431 247° West 364 419 23,000  Level Cleveland Center
10:03AM 41.3861 -78.3664 247° West 364 419 23,000  Level Cleveland Center
10:04AM 41.3489 -78.4864 248° West 364 419 23,000 -360 Level Cleveland Center
10:05AM 41.3114 -78.6122 248° West 364 419 22,300 -900 Descending Cleveland Center
10:06AM 41.2717 -78.7322 246° West 364 419 21,300 -1,020 Descending Cleveland Center
10:07AM 41.2319 -78.8547 247° West 364 419 20,300 -1,200 Descending Cleveland Center
10:08AM 41.1961 -78.9633 246° West 364 419 18,900 -1,500 Descending Cleveland Center
10:09AM 41.1581 -79.0828 247° West 364 419 17,400 -1,680 Descending Cleveland Center
10:10AM 41.1158 -79.2133 247° West 359 413 15,600 -1,800 Descending Cleveland Center
10:11AM 41.0775 -79.3269 246° West 359 413 13,900 -1,740 Descending Cleveland Center
10:12AM 41.0411 -79.4353 246° West 341 392 12,200 -1,740 Descending Cleveland Center
10:13AM 41.0067 -79.5375 246° West 329 379 10,500 -1,740 Descending Cleveland Center
10:14AM 40.9719 -79.6206 241° Southwest 301 346 8,800 -1,260 Descending Cleveland Center
10:15AM 40.9161 -79.6792 218° Southwest 262 302 8,000 -420 Descending Cleveland Center
10:16AM 40.8583 -79.7375 217° Southwest 262 302 8,000 -60 Level Cleveland Center
10:17AM 40.8003 -79.7958 217° Southwest 267 307 7,900 -600 Descending Cleveland Center
10:18AM 40.7444 -79.8569 220° Southwest 267 307 6,900 -900 Descending Cleveland Center
10:19AM 40.6800 -79.8986 206° Southwest 267 307 6,100 -480 Descending Cleveland Center
10:20AM 40.6072 -79.9103 187° South 267 307 6,000 -420 Descending Cleveland Center
10:21AM 40.5364 -79.9219 187° South 267 307 5,300 -540 Descending Cleveland Center
10:22AM 40.4822 -79.9281 185° South 238 274 5,000 -300 Descending Cleveland Center
10:24AM 40.4871 -80.0870 272° West  Level Estimated
10:31AM 40.4915 -80.2329 272° West  Level Estimated
10:32AM 40.4915 -80.2329 339° North  Level Estimated
10:33AM 40.4915 -80.2329 339° North  Level Estimated